Time;durP1;ratioP1;P1;durP2;ratioP2;P2;SDS_P1;SDS_P2;PMS_P1;PMS_P2;Temp;Humidity;BMP_temperature;BMP_pressure;BME280_temperature;BME280_humidity;BME280_pressure;Samples;Min_cycle;Max_cycle;Signal;HPM_P1;HPM_P2
2021/09/20 00:00:14;;;;;;;6.90;3.85;;;;;;;;;;5071460;28;20070;-76
2021/09/20 00:02:40;;;;;;;4.95;3.50;;;;;;;;;;5057232;28;20335;-76
2021/09/20 00:05:07;;;;;;;6.88;3.20;;;;;;;;;;5034374;28;20485;-76
2021/09/20 00:07:33;;;;;;;4.10;3.50;;;;;;;;;;5057971;28;20408;-77
2021/09/20 00:09:59;;;;;;;4.88;3.38;;;;;;;;;;5051318;28;20029;-76
2021/09/20 00:12:25;;;;;;;10.07;3.70;;;;;;;;;;5064543;28;20043;-77
2021/09/20 00:14:51;;;;;;;5.22;3.83;;;;;;;;;;5071948;28;20025;-77
2021/09/20 00:17:17;;;;;;;4.95;3.35;;;;;;;;;;5059865;28;20394;-77
2021/09/20 00:19:43;;;;;;;4.75;3.80;;;;;;;;;;5051261;28;20104;-77
2021/09/20 00:22:09;;;;;;;5.07;3.42;;;;;;;;;;5056604;28;20032;-77
2021/09/20 00:24:35;;;;;;;4.40;3.38;;;;;;;;;;5052281;28;20636;-77
2021/09/20 00:27:01;;;;;;;5.38;3.28;;;;;;;;;;5062205;28;20043;-77
2021/09/20 00:29:27;;;;;;;4.80;3.72;;;;;;;;;;5071851;28;20078;-77
2021/09/20 00:31:53;;;;;;;4.95;3.97;;;;;;;;;;5063112;28;20033;-77
2021/09/20 00:34:19;;;;;;;4.53;3.50;;;;;;;;;;5034092;28;20065;-76
2021/09/20 00:36:45;;;;;;;4.85;3.55;;;;;;;;;;5058642;28;20072;-76
2021/09/20 00:39:11;;;;;;;3.97;3.25;;;;;;;;;;5071111;28;20036;-78
2021/09/20 00:41:37;;;;;;;4.40;3.70;;;;;;;;;;5065162;28;20035;-76
2021/09/20 00:44:03;;;;;;;5.47;3.92;;;;;;;;;;5051540;28;20474;-76
2021/09/20 00:46:29;;;;;;;6.68;4.10;;;;;;;;;;5056450;28;20140;-76
2021/09/20 00:48:55;;;;;;;5.25;3.60;;;;;;;;;;5070967;28;20060;-76
2021/09/20 00:51:21;;;;;;;8.38;3.72;;;;;;;;;;5050302;28;20040;-76
2021/09/20 00:53:47;;;;;;;5.80;3.72;;;;;;;;;;5071258;28;20077;-76
2021/09/20 00:56:14;;;;;;;4.55;3.70;;;;;;;;;;5068089;28;20448;-76
2021/09/20 00:58:40;;;;;;;4.35;3.33;;;;;;;;;;5053283;28;20037;-75
2021/09/20 01:01:06;;;;;;;4.22;3.42;;;;;;;;;;5057045;28;20036;-76
2021/09/20 01:03:33;;;;;;;7.10;3.30;;;;;;;;;;5073998;28;20028;-76
2021/09/20 01:06:00;;;;;;;5.28;3.60;;;;;;;;;;5073934;28;20020;-76
2021/09/20 01:08:26;;;;;;;4.32;3.50;;;;;;;;;;5055033;28;20108;-76
2021/09/20 01:10:52;;;;;;;6.05;4.00;;;;;;;;;;5054807;28;20024;-76
2021/09/20 01:13:18;;;;;;;6.30;3.58;;;;;;;;;;5075207;28;20020;-76
2021/09/20 01:15:44;;;;;;;6.10;3.78;;;;;;;;;;5075395;28;20382;-76
2021/09/20 01:18:10;;;;;;;4.38;3.17;;;;;;;;;;5037865;28;20068;-76
2021/09/20 01:20:36;;;;;;;4.85;3.53;;;;;;;;;;5039933;28;20064;-76
2021/09/20 01:23:04;;;;;;;5.07;3.55;;;;;;;;;;5056479;28;20438;-76
2021/09/20 01:25:30;;;;;;;5.15;4.35;;;;;;;;;;5055018;28;20087;-76
2021/09/20 01:27:56;;;;;;;6.90;3.88;;;;;;;;;;5053948;28;20042;-76
2021/09/20 01:30:23;;;;;;;5.65;3.88;;;;;;;;;;5074251;28;20024;-76
2021/09/20 01:32:49;;;;;;;5.45;4.40;;;;;;;;;;5058411;28;20401;-76
2021/09/20 01:35:19;;;;;;;6.85;4.35;;;;;;;;;;5036966;28;20037;-76
2021/09/20 01:37:45;;;;;;;4.65;4.05;;;;;;;;;;5069754;28;20091;-76
2021/09/20 01:40:11;;;;;;;4.93;4.30;;;;;;;;;;5056474;28;20025;-76
2021/09/20 01:42:37;;;;;;;4.82;3.97;;;;;;;;;;5059683;28;20025;-76
2021/09/20 01:45:04;;;;;;;6.90;4.03;;;;;;;;;;5054690;28;20029;-76
2021/09/20 01:47:30;;;;;;;5.32;4.18;;;;;;;;;;5067917;28;20036;-76
2021/09/20 01:49:56;;;;;;;5.78;4.13;;;;;;;;;;5056329;28;20511;-76
2021/09/20 01:52:22;;;;;;;7.75;4.30;;;;;;;;;;5043480;28;20067;-76
2021/09/20 01:54:48;;;;;;;6.53;4.25;;;;;;;;;;5054445;28;20033;-76
2021/09/20 01:57:14;;;;;;;5.28;4.22;;;;;;;;;;5065370;28;20113;-76
2021/09/20 01:59:40;;;;;;;5.30;4.10;;;;;;;;;;5073787;28;20028;-76
2021/09/20 02:02:06;;;;;;;5.10;4.03;;;;;;;;;;5064153;28;20044;-76
2021/09/20 02:04:32;;;;;;;5.07;4.05;;;;;;;;;;5052853;28;20032;-76
2021/09/20 02:06:58;;;;;;;4.20;3.50;;;;;;;;;;5063038;28;20602;-75
2021/09/20 02:09:24;;;;;;;5.32;3.75;;;;;;;;;;5073077;28;20039;-76
2021/09/20 02:11:50;;;;;;;4.97;4.05;;;;;;;;;;5065710;28;20084;-76
2021/09/20 02:14:16;;;;;;;4.75;4.03;;;;;;;;;;5053182;28;20025;-76
2021/09/20 02:16:42;;;;;;;5.57;4.55;;;;;;;;;;5060781;28;20043;-76
2021/09/20 02:19:09;;;;;;;7.05;4.20;;;;;;;;;;5073040;28;20033;-76
2021/09/20 02:21:35;;;;;;;5.45;3.90;;;;;;;;;;5066756;28;20489;-76
2021/09/20 02:24:01;;;;;;;7.43;4.20;;;;;;;;;;5052898;28;20057;-76
2021/09/20 02:26:27;;;;;;;5.43;4.22;;;;;;;;;;5039979;28;20032;-76
2021/09/20 02:28:53;;;;;;;5.72;4.45;;;;;;;;;;5072687;28;20020;-76
2021/09/20 02:31:19;;;;;;;5.88;4.15;;;;;;;;;;5068889;28;20108;-76
2021/09/20 02:33:45;;;;;;;5.30;4.20;;;;;;;;;;5035094;28;20033;-76
2021/09/20 02:36:11;;;;;;;5.57;4.10;;;;;;;;;;5060501;28;20056;-76
2021/09/20 02:38:38;;;;;;;6.50;4.30;;;;;;;;;;5052580;28;20124;-76
2021/09/20 02:41:04;;;;;;;5.05;4.22;;;;;;;;;;5053891;28;20028;-76
2021/09/20 02:43:30;;;;;;;5.40;3.92;;;;;;;;;;5072845;28;20033;-76
2021/09/20 02:45:56;;;;;;;6.25;4.30;;;;;;;;;;5072189;28;20020;-76
2021/09/20 02:48:23;;;;;;;5.72;4.00;;;;;;;;;;5035228;28;20484;-76
2021/09/20 02:50:49;;;;;;;6.07;3.92;;;;;;;;;;5038806;28;20120;-76
2021/09/20 02:53:15;;;;;;;6.47;4.18;;;;;;;;;;5072821;28;20055;-76
2021/09/20 02:55:41;;;;;;;6.55;4.10;;;;;;;;;;5072952;28;20103;-76
2021/09/20 02:58:07;;;;;;;5.60;4.20;;;;;;;;;;5073208;28;20472;-76
2021/09/20 03:00:33;;;;;;;6.40;4.35;;;;;;;;;;5054157;28;20021;-78
2021/09/20 03:02:59;;;;;;;5.70;4.45;;;;;;;;;;5053130;28;20100;-76
2021/09/20 03:05:25;;;;;;;6.65;4.35;;;;;;;;;;5051581;28;20082;-76
2021/09/20 03:07:51;;;;;;;7.22;4.40;;;;;;;;;;5053074;28;20512;-76
2021/09/20 03:10:17;;;;;;;5.53;4.25;;;;;;;;;;5052394;28;20061;-76
2021/09/20 03:12:43;;;;;;;5.57;4.38;;;;;;;;;;5052984;28;20371;-76
2021/09/20 03:15:09;;;;;;;6.82;4.07;;;;;;;;;;5052941;28;20025;-76
2021/09/20 03:17:35;;;;;;;5.50;4.07;;;;;;;;;;5053851;28;20029;-76
2021/09/20 03:20:02;;;;;;;5.20;4.07;;;;;;;;;;5052074;28;20078;-76
2021/09/20 03:22:28;;;;;;;6.00;4.20;;;;;;;;;;5070489;28;20039;-76
2021/09/20 03:24:54;;;;;;;5.90;4.30;;;;;;;;;;5072717;28;20405;-76
2021/09/20 03:27:20;;;;;;;6.65;3.97;;;;;;;;;;5072618;28;20035;-76
2021/09/20 03:29:46;;;;;;;5.78;4.30;;;;;;;;;;5072004;28;20103;-76
2021/09/20 03:32:12;;;;;;;5.82;3.95;;;;;;;;;;5072240;28;20024;-76
2021/09/20 03:34:38;;;;;;;5.07;3.95;;;;;;;;;;5067115;28;20056;-76
2021/09/20 03:37:04;;;;;;;5.88;4.32;;;;;;;;;;5052230;28;20033;-76
2021/09/20 03:39:30;;;;;;;7.05;4.50;;;;;;;;;;5051856;28;20496;-76
2021/09/20 03:41:56;;;;;;;6.43;4.45;;;;;;;;;;5052396;28;20103;-76
2021/09/20 03:44:22;;;;;;;8.00;4.65;;;;;;;;;;5052244;28;20032;-76
2021/09/20 03:46:48;;;;;;;6.32;4.72;;;;;;;;;;5034751;28;20033;-76
2021/09/20 03:49:15;;;;;;;6.03;5.10;;;;;;;;;;5051725;28;20021;-76
2021/09/20 03:51:41;;;;;;;6.95;4.65;;;;;;;;;;5036791;28;20064;-76
2021/09/20 03:54:07;;;;;;;8.70;4.88;;;;;;;;;;5052154;28;20036;-76
2021/09/20 03:56:33;;;;;;;6.32;4.40;;;;;;;;;;5052177;28;20025;-76
2021/09/20 03:58:59;;;;;;;7.10;4.13;;;;;;;;;;5051553;28;20056;-75
2021/09/20 04:01:25;;;;;;;5.53;4.50;;;;;;;;;;5051995;28;20052;-76
2021/09/20 04:03:51;;;;;;;5.38;4.50;;;;;;;;;;5052174;28;20112;-76
2021/09/20 04:06:17;;;;;;;6.95;4.80;;;;;;;;;;5052065;28;20074;-76
2021/09/20 04:08:43;;;;;;;6.75;4.60;;;;;;;;;;5052755;28;20029;-76
2021/09/20 04:11:09;;;;;;;8.95;4.97;;;;;;;;;;5051639;28;20481;-76
2021/09/20 04:13:35;;;;;;;6.95;4.40;;;;;;;;;;5051853;28;20032;-76
2021/09/20 04:16:01;;;;;;;6.97;4.43;;;;;;;;;;5051773;28;20032;-76
2021/09/20 04:18:28;;;;;;;8.73;5.10;;;;;;;;;;5051802;28;20456;-76
2021/09/20 04:20:54;;;;;;;7.07;5.10;;;;;;;;;;5038932;28;20025;-76
2021/09/20 04:23:21;;;;;;;5.72;4.93;;;;;;;;;;5071681;28;20028;-76
2021/09/20 04:25:49;;;;;;;7.07;4.97;;;;;;;;;;5052326;28;20033;-76
2021/09/20 04:28:15;;;;;;;5.75;4.47;;;;;;;;;;5071556;28;20036;-76
2021/09/20 04:30:44;;;;;;;6.55;4.55;;;;;;;;;;5071208;28;20115;-76
2021/09/20 04:33:17;;;;;;;7.28;4.50;;;;;;;;;;5071550;28;20551;-76
2021/09/20 04:35:44;;;;;;;5.07;4.38;;;;;;;;;;5053660;28;20060;-76
2021/09/20 04:38:10;;;;;;;6.35;4.90;;;;;;;;;;5071582;28;20107;-76
2021/09/20 04:40:36;;;;;;;6.28;4.55;;;;;;;;;;5052564;28;20017;-76
2021/09/20 04:43:03;;;;;;;7.25;4.95;;;;;;;;;;5035150;28;20029;-76
2021/09/20 04:45:30;;;;;;;7.20;4.60;;;;;;;;;;5051666;28;20083;-75
2021/09/20 04:47:56;;;;;;;8.52;5.30;;;;;;;;;;5051617;28;20024;-76
2021/09/20 04:50:22;;;;;;;6.30;4.35;;;;;;;;;;5052268;28;20025;-76
2021/09/20 04:52:48;;;;;;;5.68;4.43;;;;;;;;;;5071040;28;20029;-76
2021/09/20 04:55:14;;;;;;;5.40;4.55;;;;;;;;;;5071594;28;20374;-76
2021/09/20 04:57:40;;;;;;;6.15;4.40;;;;;;;;;;5071240;28;20173;-76
2021/09/20 05:00:07;;;;;;;7.57;5.00;;;;;;;;;;5053458;28;20044;-76
2021/09/20 05:02:33;;;;;;;5.85;4.30;;;;;;;;;;5051502;28;20036;-76
2021/09/20 05:04:59;;;;;;;5.30;4.55;;;;;;;;;;5051514;28;20063;-76
2021/09/20 05:07:25;;;;;;;6.55;4.78;;;;;;;;;;5054411;28;20021;-76
2021/09/20 05:09:52;;;;;;;6.38;4.68;;;;;;;;;;5050906;28;20064;-76
2021/09/20 05:12:18;;;;;;;6.53;4.75;;;;;;;;;;5051339;28;20035;-76
2021/09/20 05:14:44;;;;;;;6.78;4.38;;;;;;;;;;5052517;28;20021;-76
2021/09/20 05:17:11;;;;;;;6.50;4.00;;;;;;;;;;5051274;28;20040;-76
2021/09/20 05:19:37;;;;;;;5.72;4.45;;;;;;;;;;5048432;28;20021;-76
2021/09/20 05:22:03;;;;;;;6.13;4.45;;;;;;;;;;5071663;28;20025;-75
2021/09/20 05:24:29;;;;;;;6.18;4.43;;;;;;;;;;5071058;28;20020;-76
2021/09/20 05:26:55;;;;;;;4.82;4.30;;;;;;;;;;5071116;28;20024;-76
2021/09/20 05:29:21;;;;;;;5.82;4.25;;;;;;;;;;5070597;28;20032;-76
2021/09/20 05:31:47;;;;;;;5.82;4.70;;;;;;;;;;5067747;28;20025;-76
2021/09/20 05:34:13;;;;;;;7.28;4.68;;;;;;;;;;5051149;28;20037;-75
2021/09/20 05:36:39;;;;;;;8.57;4.78;;;;;;;;;;5050960;28;20040;-75
2021/09/20 05:39:05;;;;;;;6.25;4.93;;;;;;;;;;5050845;28;20044;-76
2021/09/20 05:41:31;;;;;;;4.93;4.43;;;;;;;;;;5050959;28;20497;-76
2021/09/20 05:43:57;;;;;;;5.97;4.80;;;17.80;99.90;;;;;;5052134;28;20021;-79
2021/09/20 05:46:23;;;;;;;5.97;4.38;;;16.00;99.90;;;;;;5059014;28;20375;-79
2021/09/20 05:48:49;;;;;;;7.32;4.65;;;15.40;99.90;;;;;;5065391;28;20032;-79
2021/09/20 05:51:15;;;;;;;6.30;4.78;;;15.20;99.90;;;;;;5074604;28;20056;-77
2021/09/20 05:53:41;;;;;;;5.95;4.63;;;14.90;99.90;;;;;;5074332;28;20112;-77
2021/09/20 05:56:06;;;;;;;6.97;4.43;;;14.60;99.90;;;;;;5074627;28;20108;-78
2021/09/20 05:58:32;;;;;;;7.38;4.43;;;14.90;99.90;;;;;;5074733;28;20025;-77
2021/09/20 06:00:58;;;;;;;5.68;4.63;;;;;;;;;;5074027;28;20090;-77
2021/09/20 06:03:26;;;;;;;6.15;4.95;;;;;;;;;;5074534;28;20024;-79
2021/09/20 06:05:52;;;;;;;6.20;4.85;;;;;;;;;;5049469;28;20032;-79
2021/09/20 06:08:18;;;;;;;5.80;4.63;;;;;;;;;;5054913;28;20108;-76
2021/09/20 06:10:44;;;;;;;8.63;5.18;;;;;;;;;;5035902;28;20452;-76
2021/09/20 06:13:10;;;;;;;5.68;4.63;;;;;;;;;;5054274;28;20037;-78
2021/09/20 06:15:37;;;;;;;7.53;5.32;;;;;;;;;;5054452;28;20029;-79
2021/09/20 06:18:04;;;;;;;8.02;4.90;;;;;;;;;;5036327;28;20029;-75
2021/09/20 06:20:30;;;;;;;6.60;4.97;;;;;;;;;;5055201;28;20036;-75
2021/09/20 06:22:56;;;;;;;5.88;5.05;;;;;;;;;;5071300;28;20032;-75
2021/09/20 06:25:23;;;;;;;5.72;4.72;;;;;;;;;;5073240;28;20465;-75
2021/09/20 06:27:49;;;;;;;6.35;4.80;;;;;;;;;;5073633;28;20569;-77
2021/09/20 06:30:15;;;;;;;6.13;4.82;;;;;;;;;;5073038;28;20064;-76
2021/09/20 06:32:41;;;;;;;7.90;5.05;;;;;;;;;;5073831;28;20077;-76
2021/09/20 06:35:08;;;;;;;6.00;4.50;;;;;;;;;;5070625;28;20033;-76
2021/09/20 06:37:34;;;;;;;6.85;5.00;;;;;;;;;;5070601;28;20025;-76
2021/09/20 06:40:00;;;;;;;6.70;4.78;;;;;;;;;;5072356;28;20021;-76
2021/09/20 06:42:27;;;;;;;7.50;4.90;;;;;;;;;;5053549;28;20100;-77
2021/09/20 06:44:53;;;;;;;9.80;4.53;;;;;;;;;;5053416;28;20112;-77
2021/09/20 06:47:20;;;;;;;6.95;4.72;;;;;;;;;;5053250;28;20056;-77
2021/09/20 06:49:46;;;;;;;8.77;5.00;;;;;;;;;;5061111;28;20037;-76
2021/09/20 06:52:12;;;;;;;10.68;5.13;;;;;;;;;;5077729;28;20175;-77
2021/09/20 06:54:38;;;;;;;7.15;5.47;;;;;;;;;;5093337;28;20038;-77
2021/09/20 06:57:04;;;;;;;6.13;5.07;;;;;;;;;;5093261;28;20027;-77
2021/09/20 06:59:30;;;;;;;9.98;6.95;;;;;;;;;;5092934;28;20082;-77
2021/09/20 07:01:56;;;;;;;8.13;5.15;;;;;;;;;;5093500;28;20035;-77
2021/09/20 07:04:22;;;;;;;8.30;6.03;;;;;;;;;;5080304;28;20032;-76
2021/09/20 07:06:48;;;;;;;6.80;5.07;;;;;;;;;;5073078;28;20028;-77
2021/09/20 07:09:14;;;;;;;9.57;6.00;;;;;;;;;;5072024;28;20115;-77
2021/09/20 07:11:41;;;;;;;8.00;5.63;;;;;;;;;;5072623;28;20409;-77
2021/09/20 07:14:07;;;;;;;8.32;6.43;;;;;;;;;;5054814;28;20091;-77
2021/09/20 07:16:33;;;;;;;9.73;6.82;;;;;;;;;;5060791;28;20033;-77
2021/09/20 07:18:59;;;;;;;9.50;6.13;;;;;;;;;;5057540;28;20025;-77
2021/09/20 07:21:26;;;;;;;10.10;6.22;;;;;;;;;;5064103;28;20397;-77
2021/09/20 07:23:54;;;;;;;9.45;6.80;;;;;;;;;;5071724;28;20027;-77
2021/09/20 07:26:20;;;;;;;11.73;6.78;;;;;;;;;;5027623;28;20600;-77
2021/09/20 07:28:47;;;;;;;13.43;7.10;;;;;;;;;;5069525;28;20043;-78
2021/09/20 07:31:13;;;;;;;11.05;7.30;;;;;;;;;;5071583;28;20020;-79
2021/09/20 07:33:39;;;;;;;12.80;7.35;;;;;;;;;;5074280;28;20025;-79
2021/09/20 07:36:05;;;;;;;9.48;6.45;;;;;;;;;;5073841;28;20043;-79
2021/09/20 07:38:31;;;;;;;10.05;6.80;;;;;;;;;;5072368;28;20424;-79
2021/09/20 07:40:57;;;;;;;14.45;7.32;;;;;;;;;;5072982;28;20085;-79
2021/09/20 07:43:23;;;;;;;16.02;7.85;;;;;;;;;;5074696;28;20036;-79
2021/09/20 07:45:49;;;;;;;11.82;7.55;;;;;;;;;;5083895;28;20047;-79
2021/09/20 07:48:15;;;;;;;10.48;7.35;;;;;;;;;;5076460;28;20028;-80
2021/09/20 07:50:41;;;;;;;11.68;7.38;;;;;;;;;;5071811;28;20031;-79
2021/09/20 07:53:07;;;;;;;12.20;7.88;;;;;;;;;;5072012;28;20028;-79
2021/09/20 07:55:36;;;;;;;13.60;7.65;;;;;;;;;;5073774;28;20370;-78
2021/09/20 07:58:07;;;;;;;11.15;8.30;;;;;;;;;;5073679;28;20477;-79
2021/09/20 08:00:33;;;;;;;10.82;7.70;;;;;;;;;;5073094;28;20450;-79
2021/09/20 08:02:59;;;;;;;10.90;8.15;;;;;;;;;;5073047;28;20029;-79
2021/09/20 08:05:25;;;;;;;14.45;8.40;;;;;;;;;;5073734;28;20016;-79
2021/09/20 08:07:52;;;;;;;11.23;7.25;;;;;;;;;;5067389;28;20025;-78
2021/09/20 08:10:18;;;;;;;11.32;7.88;;;;;;;;;;5052866;28;20057;-78
2021/09/20 08:12:44;;;;;;;13.02;7.93;;;;;;;;;;5053791;28;20025;-78
2021/09/20 08:15:11;;;;;;;15.15;9.25;;;;;;;;;;5053512;28;20064;-78
2021/09/20 08:17:37;;;;;;;14.98;10.00;;;;;;;;;;5035286;28;20031;-78
2021/09/20 08:20:05;;;;;;;15.45;10.43;;;;;;;;;;5052830;28;20024;-78
2021/09/20 08:22:32;;;;;;;13.95;9.20;;;;;;;;;;5091319;28;20024;-78
2021/09/20 08:24:58;;;;;;;12.77;9.73;;;;;;;;;;5082469;28;20469;-78
2021/09/20 08:27:24;;;;;;;22.25;10.25;;;;;;;;;;5055434;28;20382;-78
2021/09/20 08:29:50;;;;;;;17.35;9.20;;;;;;;;;;5072234;28;20028;-78
2021/09/20 08:32:17;;;;;;;14.40;9.30;;;;;;;;;;5072868;28;20086;-78
2021/09/20 08:34:43;;;;;;;12.50;9.35;;;;;;;;;;5073215;28;20085;-78
2021/09/20 08:37:09;;;;;;;11.18;8.02;;;;;;;;;;5068013;28;20048;-78
2021/09/20 08:39:35;;;;;;;15.45;9.38;;;;;;;;;;5071032;28;20434;-78
2021/09/20 08:42:01;;;;;;;15.02;9.45;;;;;;;;;;5054057;28;20036;-77
2021/09/20 08:44:27;;;;;;;13.65;9.60;;;;;;;;;;5052163;28;20025;-77
2021/09/20 08:46:54;;;;;;;14.07;10.02;;;;;;;;;;5054934;28;20032;-78
2021/09/20 08:49:21;;;;;;;13.82;9.55;;;;;;;;;;5053849;28;20076;-78
2021/09/20 08:51:47;;;;;;;13.18;8.55;;;;;;;;;;5068407;28;20462;-78
2021/09/20 08:54:14;;;;;;;17.00;8.32;;;;;;;;;;5060447;28;20035;-78
2021/09/20 08:56:40;;;;;;;18.52;9.23;;;;;;;;;;5066967;28;20029;-78
2021/09/20 08:59:06;;;;;;;14.57;9.23;;;;;;;;;;5052364;28;20017;-77
2021/09/20 09:01:33;;;;;;;12.77;9.13;;;;;;;;;;5058452;28;20060;-79
2021/09/20 09:04:22;;;;;;;9.60;7.70;;;;;;;;;;5054726;28;20100;-82
2021/09/20 09:06:55;;;;;;;13.32;8.18;;;;;;;;;;5047474;28;20166;-78
2021/09/20 09:09:28;;;;;;;10.60;7.90;;;;;;;;;;5054612;28;20021;-78
2021/09/20 09:12:08;;;;;;;12.85;8.80;;;14.70;99.90;;;;;;5081714;28;20039;-79
2021/09/20 09:14:47;;;;;;;9.90;8.18;;;20.60;99.90;;;;;;5092868;28;20161;-79
2021/09/20 09:17:33;;;;;;;11.43;8.05;;;;;;;;;;5070665;28;20116;-78
2021/09/20 09:20:14;;;;;;;10.85;7.47;;;;;;;;;;5056846;28;20074;-78
2021/09/20 09:22:43;;;;;;;10.95;8.23;;;;;;;;;;5076275;28;20107;-78
2021/09/20 09:25:11;;;;;;;11.60;8.63;;;;;;;;;;5059639;28;20048;-78
2021/09/20 09:27:38;;;;;;;10.18;7.32;;;;;;;;;;5062074;28;20033;-78
2021/09/20 09:30:09;;;;;;;13.52;8.55;;;;;;;;;;5056717;28;20021;-78
2021/09/20 09:32:36;;;;;;;12.48;7.97;;;;;;;;;;5043686;28;20400;-78
2021/09/20 09:35:04;;;;;;;14.77;8.10;;;;;;;;;;5078436;28;20032;-78
2021/09/20 09:37:31;;;;;;;10.60;7.60;;;;;;;;;;5078012;28;20044;-78
2021/09/20 09:40:09;;;;;;;15.20;9.48;;;;;;;;;;5078168;28;20047;-78
2021/09/20 09:42:35;;;;;;;13.15;8.75;;;;;;;;;;5077127;28;20024;-78
2021/09/20 09:45:14;;;;;;;10.32;8.45;;;;;;;;;;5078087;28;20052;-78
2021/09/20 09:47:40;;;;;;;11.70;7.63;;;;;;;;;;5081070;28;20028;-78
2021/09/20 09:50:32;;;;;;;12.43;8.82;;;;;;;;;;5081882;28;20035;-78
2021/09/20 09:52:59;;;;;;;12.38;8.25;;;;;;;;;;5057781;28;20091;-79
2021/09/20 09:55:27;;;;;;;10.43;8.07;;;;;;;;;;5074659;28;20055;-78
2021/09/20 09:57:53;;;;;;;11.82;8.35;;;;;;;;;;5065443;28;20032;-78
2021/09/20 10:00:20;;;;;;;13.32;9.02;;;;;;;;;;5055681;28;20494;-79
2021/09/20 10:02:47;;;;;;;12.65;8.18;;;;;;;;;;5071709;28;20028;-78
2021/09/20 10:05:17;;;;;;;14.57;9.32;;;;;;;;;;5057459;28;20103;-78
2021/09/20 10:07:47;;;;;;;14.45;8.95;;;;;;;;;;5059182;28;20489;-78
2021/09/20 10:10:15;;;;;;;10.82;7.97;;;;;;;;;;5053892;28;20036;-78
2021/09/20 10:12:42;;;;;;;11.88;8.82;;;;;;;;;;5069296;28;20041;-78
2021/09/20 10:15:09;;;;;;;14.30;8.52;;;;;;;;;;5074806;28;20562;-79
2021/09/20 10:17:35;;;;;;;10.35;8.15;;;;;;;;;;5041753;28;20033;-78
2021/09/20 10:20:02;;;;;;;10.98;8.35;;;;;;;;;;5053890;28;20466;-78
2021/09/20 10:22:28;;;;;;;12.18;8.70;;;;;;;;;;5068339;28;20043;-78
2021/09/20 10:24:56;;;;;;;13.57;9.30;;;;;;;;;;5087248;28;20115;-78
2021/09/20 10:27:23;;;;;;;16.00;8.68;;;;;;;;;;5069607;28;20029;-78
2021/09/20 10:30:13;;;;;;;14.68;9.05;;;;;;;;;;5055502;28;20032;-79
2021/09/20 10:32:42;;;;;;;11.38;8.45;;;;;;;;;;5071394;28;20025;-79
2021/09/20 10:35:27;;;;;;;18.88;9.18;;;;;;;;;;5077408;28;20038;-79
2021/09/20 10:37:54;;;;;;;10.85;8.57;;;;;;;;;;5060197;28;20033;-78
2021/09/20 10:40:20;;;;;;;10.75;8.70;;;;;;;;;;5056406;28;20331;-79
2021/09/20 10:42:52;;;;;;;12.05;8.57;;;;;;;;;;5071181;28;20088;-79
2021/09/20 10:45:38;;;;;;;13.32;9.00;;;;;;;;;;5066565;28;20025;-79
2021/09/20 10:48:15;;;;;;;9.52;7.53;;;;;;;;;;5073486;28;20481;-77
2021/09/20 10:51:11;;;;;;;15.15;9.75;;;;;;;;;;5072278;28;20067;-78
2021/09/20 10:53:40;;;;;;;12.88;8.55;;;;;;;;;;5054584;28;20059;-78
2021/09/20 10:56:07;;;;;;;13.75;9.23;;;;;;;;;;5072504;28;20024;-78
2021/09/20 10:58:33;;;;;;;11.77;8.18;;;;;;;;;;5074273;28;20071;-78
2021/09/20 11:01:11;;;;;;;13.32;8.95;;;;;;;;;;5072912;28;20429;-78
2021/09/20 11:03:44;;;;;;;12.13;8.65;;;;;;;;;;5054428;28;20021;-78
2021/09/20 11:06:19;;;;;;;10.02;8.07;;;;;;;;;;5055431;28;20100;-77
2021/09/20 11:08:45;;;;;;;8.30;7.30;;;;;;;;;;5074071;28;20112;-77
2021/09/20 11:11:29;;;;;;;9.80;7.13;;;;;;;;;;5054646;28;20450;-77
2021/09/20 11:14:02;;;;;;;10.13;7.30;;;;;;;;;;5073442;28;20063;-78
2021/09/20 11:16:46;;;;;;;9.75;7.82;;;;;;;;;;5074659;28;20050;-78
2021/09/20 11:19:27;;;;;;;8.95;6.55;;;;;;;;;;5073730;28;20012;-78
2021/09/20 11:24:48;;;;;;;7.20;5.63;;;;;;;;;;5067153;28;20393;-77
2021/09/20 11:27:15;;;;;;;9.35;5.93;;;;;;;;;;5072471;28;20031;-77
2021/09/20 11:29:41;;;;;;;8.20;6.35;;;;;;;;;;5074213;28;20063;-77
2021/09/20 11:32:08;;;;;;;12.32;6.15;;;;;;;;;;5093824;28;20016;-77
2021/09/20 11:34:36;;;;;;;7.75;6.15;;;;;;;;;;5098591;28;20111;-77
2021/09/20 11:37:09;;;;;;;7.45;6.65;;;;;;;;;;5097287;28;20024;-77
2021/09/20 11:39:49;;;;;;;9.85;5.97;;;;;;;;;;5078905;28;20059;-78
2021/09/20 11:42:16;;;;;;;10.82;6.15;;;;;;;;;;5054707;28;20041;-78
2021/09/20 11:44:51;;;;;;;11.90;6.43;;;;;;;;;;5057576;28;20032;-77
2021/09/20 11:47:21;;;;;;;6.70;5.90;;;;;;;;;;5073392;28;20081;-77
2021/09/20 11:49:50;;;;;;;6.63;5.65;;;;;;;;;;5072715;28;20024;-77
2021/09/20 11:52:28;;;;;;;8.30;6.18;;;;;;;;;;5072484;28;20120;-77
2021/09/20 11:54:54;;;;;;;8.43;5.53;;;;;;;;;;5070797;28;20112;-77
2021/09/20 11:57:22;;;;;;;8.23;5.78;;;;;;;;;;5072574;28;20037;-78
2021/09/20 11:59:49;;;;;;;9.63;7.28;;;;;;;;;;5072494;28;20093;-78
2021/09/20 12:02:34;;;;;;;7.25;6.07;;;;;;;;;;5054937;28;20241;-77
2021/09/20 12:05:00;;;;;;;11.38;6.25;;;;;;;;;;5070619;28;20389;-78
2021/09/20 12:07:31;;;;;;;7.75;6.38;;;;;;;;;;5060136;28;20130;-78
2021/09/20 12:09:58;;;;;;;12.77;6.05;;;;;;;;;;5052491;28;20553;-78
2021/09/20 12:12:27;;;;;;;7.57;4.90;;;;;;;;;;5053065;28;20028;-78
2021/09/20 12:14:58;;;;;;;8.32;5.82;;;;;;;;;;5062078;28;20025;-78
2021/09/20 12:17:25;;;;;;;6.93;5.13;;;;;;;;;;5053906;28;20029;-77
2021/09/20 12:19:54;;;;;;;7.57;5.00;;;;;;;;;;5052430;28;20021;-78
2021/09/20 12:22:21;;;;;;;8.55;6.35;;;;;;;;;;5053654;28;20409;-77
2021/09/20 12:24:47;;;;;;;7.13;5.82;;;;;;;;;;5065653;28;20512;-77
2021/09/20 12:27:13;;;;;;;8.05;4.90;;;;;;;;;;5074431;28;20111;-77
2021/09/20 12:29:39;;;;;;;6.90;5.15;;;;;;;;;;5056530;28;20032;-77
2021/09/20 12:32:05;;;;;;;10.07;5.63;;;;;;;;;;5052016;28;20029;-77
2021/09/20 12:34:35;;;;;;;7.45;5.88;;;;;;;;;;5051842;28;20044;-77
2021/09/20 12:37:03;;;;;;;9.02;5.32;;;;;;;;;;5051754;28;20090;-77
2021/09/20 12:39:37;;;;;;;7.05;5.22;;;;;;;;;;5051012;28;20099;-77
2021/09/20 12:42:07;;;;;;;8.00;5.10;;;;;;;;;;5051709;28;20474;-77
2021/09/20 12:44:33;;;;;;;5.68;5.03;;;;;;;;;;5051495;28;20029;-77
2021/09/20 12:47:06;;;;;;;7.15;4.90;;;;;;;;;;5053929;28;20083;-77
2021/09/20 12:49:33;;;;;;;7.25;4.97;;;;;;;;;;5033222;28;20060;-77
2021/09/20 12:51:59;;;;;;;5.63;4.95;;;;;;;;;;5051254;28;20063;-77
2021/09/20 12:54:26;;;;;;;5.75;4.95;;;;;;;;;;5062793;28;20033;-77
2021/09/20 12:56:53;;;;;;;6.05;5.15;;;;;;;;;;5090621;28;20032;-77
2021/09/20 12:59:33;;;;;;;8.70;4.90;;;;;;;;;;5095737;28;20069;-77
2021/09/20 13:02:00;;;;;;;5.53;4.95;;;;;;;;;;5089629;28;20021;-77
2021/09/20 13:04:32;;;;;;;8.80;5.90;;;;;;;;;;5075563;28;20039;-77
2021/09/20 13:07:10;;;;;;;9.93;5.78;;;;;;;;;;5057718;28;20028;-77
2021/09/20 13:09:37;;;;;;;5.75;4.65;;;;;;;;;;5074735;28;20031;-77
2021/09/20 13:12:08;;;;;;;6.00;4.60;;;;;;;;;;5078111;28;20028;-78
2021/09/20 13:14:34;;;;;;;6.50;5.00;;;;;;;;;;5078437;28;20476;-78
2021/09/20 13:17:07;;;;;;;5.88;4.95;;;;;;;;;;5060930;28;20116;-78
2021/09/20 13:19:34;;;;;;;10.35;5.00;;;;;;;;;;5075140;28;20028;-77
2021/09/20 13:22:04;;;;;;;6.50;5.20;;;;;;;;;;5075806;28;20522;-77
2021/09/20 13:24:31;;;;;;;9.15;5.15;;;;;;;;;;5075267;28;20025;-77
2021/09/20 13:26:57;;;;;;;7.88;5.30;;;;;;;;;;5075440;28;20036;-78
2021/09/20 13:29:23;;;;;;;8.50;4.97;;;;;;;;;;5074765;28;20032;-77
2021/09/20 13:31:49;;;;;;;6.90;4.57;;;;;;;;;;5075070;28;20063;-77
2021/09/20 13:34:15;;;;;;;5.32;4.68;;;;;;;;;;5075160;28;20067;-77
2021/09/20 13:36:41;;;;;;;6.35;4.80;;;;;;;;;;5073672;28;20032;-78
2021/09/20 13:39:07;;;;;;;7.47;4.60;;;;;;;;;;5074662;28;20031;-77
2021/09/20 13:41:33;;;;;;;7.80;4.47;;;;;;;;;;5074926;28;20031;-77
2021/09/20 13:43:59;;;;;;;6.10;4.68;;;;;;;;;;5075456;28;20115;-77
2021/09/20 13:46:26;;;;;;;5.05;4.10;;;;;;;;;;5075534;28;20016;-77
2021/09/20 13:48:54;;;;;;;5.15;4.35;;;;;;;;;;5075173;28;20509;-78
2021/09/20 13:51:20;;;;;;;6.22;4.75;;;;;;;;;;5075085;28;20025;-77
2021/09/20 13:53:48;;;;;;;7.22;5.07;;;;;;;;;;5073281;28;20481;-77
2021/09/20 13:56:14;;;;;;;7.75;4.68;;;;;;;;;;5074306;28;20564;-77
2021/09/20 13:58:41;;;;;;;7.60;4.88;;;;;;;;;;5056917;28;20481;-78
2021/09/20 14:01:07;;;;;;;5.65;4.40;;;;;;;;;;5074502;28;20033;-78
2021/09/20 14:03:33;;;;;;;6.75;4.60;;;;;;;;;;5057265;28;20176;-77
2021/09/20 14:05:59;;;;;;;5.97;4.88;;;;;;;;;;5056514;28;20138;-77
2021/09/20 14:08:28;;;;;;;11.27;4.82;;;;;;;;;;5066547;28;20116;-77
2021/09/20 14:10:56;;;;;;;7.47;4.55;;;;;;;;;;5061155;28;20033;-77
2021/09/20 14:13:26;;;;;;;6.78;5.15;;;20.50;99.90;;;;;;5059956;28;20024;-77
2021/09/20 14:15:53;;;;;;;6.47;4.43;;;;;;;;;;5062769;28;20029;-78
2021/09/20 14:18:19;;;;;;;5.97;4.30;;;;;;;;;;5046449;28;20028;-78
2021/09/20 14:20:46;;;;;;;6.70;4.28;;;;;;;;;;5061457;28;20021;-77
2021/09/20 14:23:12;;;;;;;7.10;4.20;;;;;;;;;;5071688;28;20028;-77
2021/09/20 14:25:39;;;;;;;4.90;4.28;;;;;;;;;;5087178;28;20456;-77
2021/09/20 14:28:07;;;;;;;5.97;4.18;;;;;;;;;;5043495;28;20036;-77
2021/09/20 14:30:33;;;;;;;6.40;4.47;;;;;;;;;;5064122;28;20444;-76
2021/09/20 14:32:59;;;;;;;5.25;4.40;;;;;;;;;;5053857;28;20052;-76
2021/09/20 14:35:25;;;;;;;5.57;4.40;;;;;;;;;;5070309;28;20434;-79
2021/09/20 14:37:51;;;;;;;8.35;4.38;;;;;;;;;;5074889;28;20040;-75
2021/09/20 14:40:19;;;;;;;5.90;4.53;;;;;;;;;;5073445;28;20052;-78